sensor_id;sensor_type;location;lat;lon;timestamp;P1;durP1;ratioP1;P2;durP2;ratioP2
36443;SDS011;24692;45.642;13.806;2023-12-20T00:01:47;6.93;;;3.80;;
36443;SDS011;24692;45.642;13.806;2023-12-20T00:04:14;4.70;;;3.80;;
36443;SDS011;24692;45.642;13.806;2023-12-20T00:06:40;4.30;;;3.20;;
36443;SDS011;24692;45.642;13.806;2023-12-20T00:09:05;6.73;;;3.23;;
36443;SDS011;24692;45.642;13.806;2023-12-20T00:11:31;5.77;;;3.13;;
36443;SDS011;24692;45.642;13.806;2023-12-20T00:13:56;4.07;;;2.90;;
36443;SDS011;24692;45.642;13.806;2023-12-20T00:16:22;5.13;;;3.10;;
36443;SDS011;24692;45.642;13.806;2023-12-20T00:18:48;5.13;;;3.60;;
36443;SDS011;24692;45.642;13.806;2023-12-20T00:21:14;5.53;;;3.30;;
36443;SDS011;24692;45.642;13.806;2023-12-20T00:23:39;5.67;;;3.30;;
36443;SDS011;24692;45.642;13.806;2023-12-20T00:26:05;4.87;;;3.37;;
36443;SDS011;24692;45.642;13.806;2023-12-20T00:28:30;5.10;;;3.40;;
36443;SDS011;24692;45.642;13.806;2023-12-20T00:30:56;5.03;;;3.50;;
36443;SDS011;24692;45.642;13.806;2023-12-20T00:33:22;4.23;;;3.50;;
36443;SDS011;24692;45.642;13.806;2023-12-20T00:35:47;4.40;;;3.50;;
36443;SDS011;24692;45.642;13.806;2023-12-20T00:38:13;4.40;;;3.40;;
36443;SDS011;24692;45.642;13.806;2023-12-20T00:40:39;6.73;;;3.47;;
36443;SDS011;24692;45.642;13.806;2023-12-20T00:43:05;4.87;;;3.10;;
36443;SDS011;24692;45.642;13.806;2023-12-20T00:45:30;5.77;;;3.40;;
36443;SDS011;24692;45.642;13.806;2023-12-20T00:47:56;6.67;;;3.63;;
36443;SDS011;24692;45.642;13.806;2023-12-20T00:50:22;4.00;;;3.20;;
36443;SDS011;24692;45.642;13.806;2023-12-20T00:52:48;5.43;;;3.27;;
36443;SDS011;24692;45.642;13.806;2023-12-20T00:55:13;6.70;;;3.67;;
36443;SDS011;24692;45.642;13.806;2023-12-20T00:57:39;5.43;;;3.47;;
36443;SDS011;24692;45.642;13.806;2023-12-20T01:00:05;5.77;;;3.60;;
36443;SDS011;24692;45.642;13.806;2023-12-20T01:02:31;8.00;;;3.97;;
36443;SDS011;24692;45.642;13.806;2023-12-20T01:04:57;4.80;;;3.70;;
36443;SDS011;24692;45.642;13.806;2023-12-20T01:07:23;5.90;;;3.50;;
36443;SDS011;24692;45.642;13.806;2023-12-20T01:09:48;4.47;;;3.10;;
36443;SDS011;24692;45.642;13.806;2023-12-20T01:12:14;4.37;;;3.17;;
36443;SDS011;24692;45.642;13.806;2023-12-20T01:14:40;5.20;;;3.57;;
36443;SDS011;24692;45.642;13.806;2023-12-20T01:17:05;5.23;;;3.30;;
36443;SDS011;24692;45.642;13.806;2023-12-20T01:19:31;6.07;;;3.50;;
36443;SDS011;24692;45.642;13.806;2023-12-20T01:21:57;4.47;;;3.30;;
36443;SDS011;24692;45.642;13.806;2023-12-20T01:24:22;3.77;;;2.97;;
36443;SDS011;24692;45.642;13.806;2023-12-20T01:26:48;5.23;;;3.47;;
36443;SDS011;24692;45.642;13.806;2023-12-20T01:29:14;5.83;;;3.50;;
36443;SDS011;24692;45.642;13.806;2023-12-20T01:31:40;6.80;;;4.33;;
36443;SDS011;24692;45.642;13.806;2023-12-20T01:34:06;5.40;;;3.40;;
36443;SDS011;24692;45.642;13.806;2023-12-20T01:36:32;4.43;;;3.33;;
36443;SDS011;24692;45.642;13.806;2023-12-20T01:38:58;5.57;;;3.57;;
36443;SDS011;24692;45.642;13.806;2023-12-20T01:41:23;4.57;;;3.30;;
36443;SDS011;24692;45.642;13.806;2023-12-20T01:43:49;4.37;;;3.50;;
36443;SDS011;24692;45.642;13.806;2023-12-20T01:46:15;4.33;;;3.13;;
36443;SDS011;24692;45.642;13.806;2023-12-20T01:48:41;3.77;;;3.00;;
36443;SDS011;24692;45.642;13.806;2023-12-20T01:51:07;3.90;;;3.20;;
36443;SDS011;24692;45.642;13.806;2023-12-20T01:53:33;4.77;;;3.20;;
36443;SDS011;24692;45.642;13.806;2023-12-20T01:55:59;4.27;;;3.30;;
36443;SDS011;24692;45.642;13.806;2023-12-20T01:58:26;4.57;;;3.47;;
36443;SDS011;24692;45.642;13.806;2023-12-20T02:00:52;4.83;;;3.47;;
36443;SDS011;24692;45.642;13.806;2023-12-20T02:03:19;5.00;;;3.63;;
36443;SDS011;24692;45.642;13.806;2023-12-20T02:05:46;4.27;;;3.30;;
36443;SDS011;24692;45.642;13.806;2023-12-20T02:08:13;5.00;;;3.70;;
36443;SDS011;24692;45.642;13.806;2023-12-20T02:10:39;4.53;;;3.43;;
36443;SDS011;24692;45.642;13.806;2023-12-20T02:13:05;4.83;;;3.37;;
36443;SDS011;24692;45.642;13.806;2023-12-20T02:15:31;4.77;;;3.27;;
36443;SDS011;24692;45.642;13.806;2023-12-20T02:17:57;5.93;;;3.40;;
36443;SDS011;24692;45.642;13.806;2023-12-20T02:20:22;3.87;;;3.00;;
36443;SDS011;24692;45.642;13.806;2023-12-20T02:22:48;3.57;;;2.80;;
36443;SDS011;24692;45.642;13.806;2023-12-20T02:25:14;3.37;;;2.70;;
36443;SDS011;24692;45.642;13.806;2023-12-20T02:27:40;3.40;;;2.60;;
36443;SDS011;24692;45.642;13.806;2023-12-20T02:30:06;3.03;;;2.37;;
36443;SDS011;24692;45.642;13.806;2023-12-20T02:32:32;2.77;;;2.23;;
36443;SDS011;24692;45.642;13.806;2023-12-20T02:34:57;4.30;;;2.50;;
36443;SDS011;24692;45.642;13.806;2023-12-20T02:37:23;2.27;;;1.90;;
36443;SDS011;24692;45.642;13.806;2023-12-20T02:39:49;2.53;;;1.97;;
36443;SDS011;24692;45.642;13.806;2023-12-20T02:42:15;2.97;;;1.90;;
36443;SDS011;24692;45.642;13.806;2023-12-20T02:44:40;4.13;;;2.33;;
36443;SDS011;24692;45.642;13.806;2023-12-20T02:47:06;2.53;;;2.10;;
36443;SDS011;24692;45.642;13.806;2023-12-20T02:49:32;4.27;;;2.30;;
36443;SDS011;24692;45.642;13.806;2023-12-20T02:51:57;2.17;;;1.80;;
36443;SDS011;24692;45.642;13.806;2023-12-20T02:54:23;3.03;;;2.23;;
36443;SDS011;24692;45.642;13.806;2023-12-20T02:56:49;5.60;;;2.13;;
36443;SDS011;24692;45.642;13.806;2023-12-20T02:59:14;4.83;;;2.00;;
36443;SDS011;24692;45.642;13.806;2023-12-20T03:01:44;2.40;;;1.80;;
36443;SDS011;24692;45.642;13.806;2023-12-20T03:04:11;3.13;;;2.00;;
36443;SDS011;24692;45.642;13.806;2023-12-20T03:06:36;4.93;;;2.40;;
36443;SDS011;24692;45.642;13.806;2023-12-20T03:09:02;3.00;;;2.33;;
36443;SDS011;24692;45.642;13.806;2023-12-20T03:11:28;2.83;;;2.50;;
36443;SDS011;24692;45.642;13.806;2023-12-20T03:13:54;4.47;;;3.27;;
36443;SDS011;24692;45.642;13.806;2023-12-20T03:16:20;5.53;;;4.00;;
36443;SDS011;24692;45.642;13.806;2023-12-20T03:18:46;5.93;;;4.37;;
36443;SDS011;24692;45.642;13.806;2023-12-20T03:21:11;34.07;;;18.63;;
36443;SDS011;24692;45.642;13.806;2023-12-20T03:23:37;26.97;;;15.47;;
36443;SDS011;24692;45.642;13.806;2023-12-20T03:26:03;27.17;;;14.97;;
36443;SDS011;24692;45.642;13.806;2023-12-20T03:28:31;56.20;;;29.30;;
36443;SDS011;24692;45.642;13.806;2023-12-20T03:30:57;28.37;;;15.90;;
36443;SDS011;24692;45.642;13.806;2023-12-20T03:33:22;83.63;;;45.37;;
36443;SDS011;24692;45.642;13.806;2023-12-20T03:35:48;43.17;;;24.07;;
36443;SDS011;24692;45.642;13.806;2023-12-20T03:38:14;52.13;;;29.27;;
36443;SDS011;24692;45.642;13.806;2023-12-20T03:40:39;30.77;;;17.67;;
36443;SDS011;24692;45.642;13.806;2023-12-20T03:43:05;23.53;;;14.70;;
36443;SDS011;24692;45.642;13.806;2023-12-20T03:45:30;18.80;;;11.73;;
36443;SDS011;24692;45.642;13.806;2023-12-20T03:47:56;12.83;;;8.57;;
36443;SDS011;24692;45.642;13.806;2023-12-20T03:50:22;13.20;;;8.87;;
36443;SDS011;24692;45.642;13.806;2023-12-20T03:52:48;11.40;;;7.97;;
36443;SDS011;24692;45.642;13.806;2023-12-20T03:55:14;8.83;;;5.87;;
36443;SDS011;24692;45.642;13.806;2023-12-20T03:57:41;8.93;;;5.60;;
36443;SDS011;24692;45.642;13.806;2023-12-20T04:00:07;9.23;;;6.40;;
36443;SDS011;24692;45.642;13.806;2023-12-20T04:02:42;11.50;;;8.10;;
36443;SDS011;24692;45.642;13.806;2023-12-20T04:05:08;7.40;;;4.73;;
36443;SDS011;24692;45.642;13.806;2023-12-20T04:07:35;7.50;;;4.67;;
36443;SDS011;24692;45.642;13.806;2023-12-20T04:10:01;9.60;;;6.17;;
36443;SDS011;24692;45.642;13.806;2023-12-20T04:12:28;6.83;;;5.20;;
36443;SDS011;24692;45.642;13.806;2023-12-20T04:14:54;7.67;;;5.00;;
36443;SDS011;24692;45.642;13.806;2023-12-20T04:17:20;8.90;;;5.23;;
36443;SDS011;24692;45.642;13.806;2023-12-20T04:19:48;5.33;;;4.10;;
36443;SDS011;24692;45.642;13.806;2023-12-20T04:22:14;7.20;;;4.53;;
36443;SDS011;24692;45.642;13.806;2023-12-20T04:24:40;8.77;;;4.70;;
36443;SDS011;24692;45.642;13.806;2023-12-20T04:27:07;7.47;;;5.10;;
36443;SDS011;24692;45.642;13.806;2023-12-20T04:29:33;6.77;;;4.53;;
36443;SDS011;24692;45.642;13.806;2023-12-20T04:31:59;7.57;;;4.53;;
36443;SDS011;24692;45.642;13.806;2023-12-20T04:34:25;7.50;;;4.23;;
36443;SDS011;24692;45.642;13.806;2023-12-20T04:36:51;7.27;;;4.33;;
36443;SDS011;24692;45.642;13.806;2023-12-20T04:39:17;7.47;;;4.40;;
36443;SDS011;24692;45.642;13.806;2023-12-20T04:41:42;7.37;;;5.00;;
36443;SDS011;24692;45.642;13.806;2023-12-20T04:44:08;7.23;;;5.10;;
36443;SDS011;24692;45.642;13.806;2023-12-20T04:46:34;6.80;;;4.83;;
36443;SDS011;24692;45.642;13.806;2023-12-20T04:49:00;5.70;;;4.50;;
36443;SDS011;24692;45.642;13.806;2023-12-20T04:51:26;6.20;;;4.50;;
36443;SDS011;24692;45.642;13.806;2023-12-20T04:53:52;6.83;;;3.90;;
36443;SDS011;24692;45.642;13.806;2023-12-20T04:56:18;3.80;;;2.90;;
36443;SDS011;24692;45.642;13.806;2023-12-20T04:58:43;5.40;;;3.70;;
36443;SDS011;24692;45.642;13.806;2023-12-20T05:01:09;5.43;;;2.67;;
36443;SDS011;24692;45.642;13.806;2023-12-20T05:03:35;5.57;;;3.00;;
36443;SDS011;24692;45.642;13.806;2023-12-20T05:06:01;3.13;;;2.50;;
36443;SDS011;24692;45.642;13.806;2023-12-20T05:08:26;5.50;;;2.97;;
36443;SDS011;24692;45.642;13.806;2023-12-20T05:10:55;5.40;;;3.10;;
36443;SDS011;24692;45.642;13.806;2023-12-20T05:13:21;5.80;;;3.53;;
36443;SDS011;24692;45.642;13.806;2023-12-20T05:15:47;4.03;;;3.10;;
36443;SDS011;24692;45.642;13.806;2023-12-20T05:18:13;4.37;;;3.30;;
36443;SDS011;24692;45.642;13.806;2023-12-20T05:20:39;5.93;;;3.27;;
36443;SDS011;24692;45.642;13.806;2023-12-20T05:23:05;4.93;;;3.30;;
36443;SDS011;24692;45.642;13.806;2023-12-20T05:25:31;6.90;;;4.37;;
36443;SDS011;24692;45.642;13.806;2023-12-20T05:27:57;8.20;;;4.50;;
36443;SDS011;24692;45.642;13.806;2023-12-20T05:30:23;6.33;;;4.00;;
36443;SDS011;24692;45.642;13.806;2023-12-20T05:32:49;6.10;;;4.03;;
36443;SDS011;24692;45.642;13.806;2023-12-20T05:35:14;5.83;;;3.60;;
36443;SDS011;24692;45.642;13.806;2023-12-20T05:37:40;4.90;;;3.30;;
36443;SDS011;24692;45.642;13.806;2023-12-20T05:40:06;4.83;;;3.23;;
36443;SDS011;24692;45.642;13.806;2023-12-20T05:42:36;6.30;;;3.13;;
36443;SDS011;24692;45.642;13.806;2023-12-20T05:45:02;5.87;;;2.80;;
36443;SDS011;24692;45.642;13.806;2023-12-20T05:47:29;4.43;;;2.67;;
36443;SDS011;24692;45.642;13.806;2023-12-20T05:49:55;5.47;;;3.13;;
36443;SDS011;24692;45.642;13.806;2023-12-20T05:52:20;4.27;;;3.07;;
36443;SDS011;24692;45.642;13.806;2023-12-20T05:54:46;5.30;;;2.73;;
36443;SDS011;24692;45.642;13.806;2023-12-20T05:57:12;5.60;;;3.07;;
36443;SDS011;24692;45.642;13.806;2023-12-20T05:59:38;7.57;;;3.33;;
36443;SDS011;24692;45.642;13.806;2023-12-20T06:02:04;11.87;;;3.77;;
36443;SDS011;24692;45.642;13.806;2023-12-20T06:04:30;7.80;;;3.40;;
36443;SDS011;24692;45.642;13.806;2023-12-20T06:06:55;12.80;;;3.93;;
36443;SDS011;24692;45.642;13.806;2023-12-20T06:09:21;10.47;;;3.80;;
36443;SDS011;24692;45.642;13.806;2023-12-20T06:11:47;8.33;;;3.70;;
36443;SDS011;24692;45.642;13.806;2023-12-20T06:14:12;5.57;;;3.57;;
36443;SDS011;24692;45.642;13.806;2023-12-20T06:16:38;5.43;;;3.00;;
36443;SDS011;24692;45.642;13.806;2023-12-20T06:19:04;5.80;;;3.13;;
36443;SDS011;24692;45.642;13.806;2023-12-20T06:21:30;9.13;;;5.07;;
36443;SDS011;24692;45.642;13.806;2023-12-20T06:23:55;6.27;;;3.87;;
36443;SDS011;24692;45.642;13.806;2023-12-20T06:26:21;6.37;;;4.30;;
36443;SDS011;24692;45.642;13.806;2023-12-20T06:28:46;8.63;;;4.40;;
36443;SDS011;24692;45.642;13.806;2023-12-20T06:31:12;6.83;;;4.33;;
36443;SDS011;24692;45.642;13.806;2023-12-20T06:33:38;11.50;;;4.13;;
36443;SDS011;24692;45.642;13.806;2023-12-20T06:36:06;7.73;;;4.00;;
36443;SDS011;24692;45.642;13.806;2023-12-20T06:38:32;15.73;;;4.63;;
36443;SDS011;24692;45.642;13.806;2023-12-20T06:40:57;6.40;;;4.07;;
36443;SDS011;24692;45.642;13.806;2023-12-20T06:43:24;7.80;;;3.80;;
36443;SDS011;24692;45.642;13.806;2023-12-20T06:45:50;14.67;;;4.97;;
36443;SDS011;24692;45.642;13.806;2023-12-20T06:48:16;4.87;;;3.47;;
36443;SDS011;24692;45.642;13.806;2023-12-20T06:50:41;5.37;;;3.87;;
36443;SDS011;24692;45.642;13.806;2023-12-20T06:53:07;7.97;;;5.40;;
36443;SDS011;24692;45.642;13.806;2023-12-20T06:55:36;8.20;;;4.60;;
36443;SDS011;24692;45.642;13.806;2023-12-20T06:58:04;10.40;;;4.23;;
36443;SDS011;24692;45.642;13.806;2023-12-20T07:00:30;7.73;;;4.10;;
36443;SDS011;24692;45.642;13.806;2023-12-20T07:02:57;4.33;;;3.40;;
36443;SDS011;24692;45.642;13.806;2023-12-20T07:05:23;5.80;;;3.43;;
36443;SDS011;24692;45.642;13.806;2023-12-20T07:07:49;5.80;;;3.40;;
36443;SDS011;24692;45.642;13.806;2023-12-20T07:10:15;5.70;;;3.33;;
36443;SDS011;24692;45.642;13.806;2023-12-20T07:12:41;5.00;;;3.00;;
36443;SDS011;24692;45.642;13.806;2023-12-20T07:15:06;18.50;;;4.23;;
36443;SDS011;24692;45.642;13.806;2023-12-20T07:17:33;11.17;;;4.63;;
36443;SDS011;24692;45.642;13.806;2023-12-20T07:19:59;6.67;;;3.27;;
36443;SDS011;24692;45.642;13.806;2023-12-20T07:22:29;5.80;;;3.60;;
36443;SDS011;24692;45.642;13.806;2023-12-20T07:24:56;7.93;;;3.40;;
36443;SDS011;24692;45.642;13.806;2023-12-20T07:27:26;18.43;;;4.93;;
36443;SDS011;24692;45.642;13.806;2023-12-20T07:29:52;5.03;;;3.60;;
36443;SDS011;24692;45.642;13.806;2023-12-20T07:32:18;6.33;;;4.13;;
36443;SDS011;24692;45.642;13.806;2023-12-20T07:34:45;5.03;;;4.10;;
36443;SDS011;24692;45.642;13.806;2023-12-20T07:37:11;7.80;;;4.33;;
36443;SDS011;24692;45.642;13.806;2023-12-20T07:39:40;7.23;;;4.60;;
36443;SDS011;24692;45.642;13.806;2023-12-20T07:42:08;6.50;;;4.50;;
36443;SDS011;24692;45.642;13.806;2023-12-20T07:44:35;7.50;;;4.07;;
36443;SDS011;24692;45.642;13.806;2023-12-20T07:47:01;5.33;;;4.37;;
36443;SDS011;24692;45.642;13.806;2023-12-20T07:49:27;7.33;;;5.07;;
36443;SDS011;24692;45.642;13.806;2023-12-20T07:51:52;5.90;;;3.90;;
36443;SDS011;24692;45.642;13.806;2023-12-20T07:54:18;9.77;;;4.03;;
36443;SDS011;24692;45.642;13.806;2023-12-20T07:56:45;5.23;;;3.87;;
36443;SDS011;24692;45.642;13.806;2023-12-20T07:59:11;5.90;;;3.50;;
36443;SDS011;24692;45.642;13.806;2023-12-20T08:01:37;6.87;;;3.87;;
36443;SDS011;24692;45.642;13.806;2023-12-20T08:04:03;10.20;;;4.73;;
36443;SDS011;24692;45.642;13.806;2023-12-20T08:06:29;9.70;;;4.75;;
36443;SDS011;24692;45.642;13.806;2023-12-20T08:08:54;5.97;;;4.20;;
36443;SDS011;24692;45.642;13.806;2023-12-20T08:11:20;5.40;;;3.88;;
36443;SDS011;24692;45.642;13.806;2023-12-20T08:13:46;5.28;;;3.80;;
36443;SDS011;24692;45.642;13.806;2023-12-20T08:16:12;5.40;;;3.42;;
36443;SDS011;24692;45.642;13.806;2023-12-20T08:18:38;8.55;;;3.65;;
36443;SDS011;24692;45.642;13.806;2023-12-20T08:21:04;4.20;;;3.08;;
36443;SDS011;24692;45.642;13.806;2023-12-20T08:23:32;5.10;;;2.90;;
36443;SDS011;24692;45.642;13.806;2023-12-20T08:26:03;10.38;;;3.42;;
36443;SDS011;24692;45.642;13.806;2023-12-20T08:28:31;8.43;;;2.95;;
36443;SDS011;24692;45.642;13.806;2023-12-20T08:30:57;7.20;;;3.00;;
36443;SDS011;24692;45.642;13.806;2023-12-20T08:33:23;8.32;;;2.92;;
36443;SDS011;24692;45.642;13.806;2023-12-20T08:35:49;7.25;;;3.30;;
36443;SDS011;24692;45.642;13.806;2023-12-20T08:38:15;11.43;;;3.17;;
36443;SDS011;24692;45.642;13.806;2023-12-20T08:40:41;13.55;;;3.55;;
36443;SDS011;24692;45.642;13.806;2023-12-20T08:43:07;9.70;;;3.65;;
36443;SDS011;24692;45.642;13.806;2023-12-20T08:45:33;13.03;;;3.30;;
36443;SDS011;24692;45.642;13.806;2023-12-20T08:48:01;6.23;;;3.53;;
36443;SDS011;24692;45.642;13.806;2023-12-20T08:50:28;5.60;;;3.33;;
36443;SDS011;24692;45.642;13.806;2023-12-20T08:52:54;12.00;;;3.80;;
36443;SDS011;24692;45.642;13.806;2023-12-20T08:55:21;7.53;;;3.83;;
36443;SDS011;24692;45.642;13.806;2023-12-20T08:57:47;8.33;;;3.70;;
36443;SDS011;24692;45.642;13.806;2023-12-20T09:00:13;8.77;;;3.50;;
36443;SDS011;24692;45.642;13.806;2023-12-20T09:02:39;18.77;;;4.40;;
36443;SDS011;24692;45.642;13.806;2023-12-20T09:05:04;18.43;;;4.23;;
36443;SDS011;24692;45.642;13.806;2023-12-20T09:07:30;15.67;;;4.27;;
36443;SDS011;24692;45.642;13.806;2023-12-20T09:09:57;15.90;;;4.40;;
36443;SDS011;24692;45.642;13.806;2023-12-20T09:12:23;14.27;;;4.50;;
36443;SDS011;24692;45.642;13.806;2023-12-20T09:14:50;10.73;;;5.00;;
36443;SDS011;24692;45.642;13.806;2023-12-20T09:17:17;10.97;;;4.23;;
36443;SDS011;24692;45.642;13.806;2023-12-20T09:19:43;10.90;;;4.67;;
36443;SDS011;24692;45.642;13.806;2023-12-20T09:22:09;18.00;;;5.80;;
36443;SDS011;24692;45.642;13.806;2023-12-20T09:24:35;18.70;;;6.23;;
36443;SDS011;24692;45.642;13.806;2023-12-20T09:27:01;10.30;;;5.03;;
36443;SDS011;24692;45.642;13.806;2023-12-20T09:29:28;14.60;;;4.93;;
36443;SDS011;24692;45.642;13.806;2023-12-20T09:31:57;8.13;;;4.43;;
36443;SDS011;24692;45.642;13.806;2023-12-20T09:34:23;9.27;;;4.80;;
36443;SDS011;24692;45.642;13.806;2023-12-20T09:36:50;8.03;;;5.53;;
36443;SDS011;24692;45.642;13.806;2023-12-20T09:39:17;10.37;;;5.30;;
36443;SDS011;24692;45.642;13.806;2023-12-20T09:41:51;8.38;;;5.28;;
36443;SDS011;24692;45.642;13.806;2023-12-20T09:44:26;10.13;;;5.43;;
36443;SDS011;24692;45.642;13.806;2023-12-20T09:46:52;6.67;;;4.43;;
36443;SDS011;24692;45.642;13.806;2023-12-20T09:49:19;7.00;;;4.97;;
36443;SDS011;24692;45.642;13.806;2023-12-20T09:51:46;7.57;;;4.77;;
36443;SDS011;24692;45.642;13.806;2023-12-20T09:54:16;9.63;;;4.60;;
36443;SDS011;24692;45.642;13.806;2023-12-20T09:56:42;6.97;;;4.33;;
36443;SDS011;24692;45.642;13.806;2023-12-20T09:59:08;10.80;;;5.17;;
36443;SDS011;24692;45.642;13.806;2023-12-20T10:01:34;9.23;;;4.20;;
36443;SDS011;24692;45.642;13.806;2023-12-20T10:04:01;6.60;;;4.40;;
36443;SDS011;24692;45.642;13.806;2023-12-20T10:06:34;7.27;;;4.60;;
36443;SDS011;24692;45.642;13.806;2023-12-20T10:09:01;6.10;;;4.50;;
36443;SDS011;24692;45.642;13.806;2023-12-20T10:11:27;7.43;;;4.73;;
36443;SDS011;24692;45.642;13.806;2023-12-20T10:13:58;7.87;;;3.93;;
36443;SDS011;24692;45.642;13.806;2023-12-20T10:16:28;4.97;;;3.70;;
36443;SDS011;24692;45.642;13.806;2023-12-20T10:18:54;7.83;;;3.87;;
36443;SDS011;24692;45.642;13.806;2023-12-20T10:21:42;6.30;;;3.83;;
36443;SDS011;24692;45.642;13.806;2023-12-20T10:24:15;6.37;;;3.67;;
36443;SDS011;24692;45.642;13.806;2023-12-20T10:26:42;5.00;;;3.40;;
36443;SDS011;24692;45.642;13.806;2023-12-20T10:29:10;4.93;;;3.70;;
36443;SDS011;24692;45.642;13.806;2023-12-20T10:31:37;6.00;;;3.93;;
36443;SDS011;24692;45.642;13.806;2023-12-20T10:34:07;6.73;;;3.70;;
36443;SDS011;24692;45.642;13.806;2023-12-20T10:36:33;5.67;;;4.00;;
36443;SDS011;24692;45.642;13.806;2023-12-20T10:38:59;8.40;;;4.47;;
36443;SDS011;24692;45.642;13.806;2023-12-20T10:41:32;5.80;;;3.97;;
36443;SDS011;24692;45.642;13.806;2023-12-20T10:44:06;5.60;;;3.93;;
36443;SDS011;24692;45.642;13.806;2023-12-20T10:46:33;5.47;;;4.00;;
36443;SDS011;24692;45.642;13.806;2023-12-20T10:48:59;8.30;;;5.17;;
36443;SDS011;24692;45.642;13.806;2023-12-20T10:51:28;9.00;;;4.70;;
36443;SDS011;24692;45.642;13.806;2023-12-20T10:53:56;10.87;;;4.57;;
36443;SDS011;24692;45.642;13.806;2023-12-20T10:56:22;8.73;;;5.10;;
36443;SDS011;24692;45.642;13.806;2023-12-20T10:58:58;8.40;;;5.70;;
36443;SDS011;24692;45.642;13.806;2023-12-20T11:01:28;6.50;;;4.80;;
36443;SDS011;24692;45.642;13.806;2023-12-20T11:03:55;6.77;;;4.53;;
36443;SDS011;24692;45.642;13.806;2023-12-20T11:09:01;7.43;;;5.27;;
36443;SDS011;24692;45.642;13.806;2023-12-20T11:14:20;5.70;;;4.53;;
36443;SDS011;24692;45.642;13.806;2023-12-20T11:16:50;10.63;;;4.70;;
36443;SDS011;24692;45.642;13.806;2023-12-20T11:19:30;6.53;;;4.80;;
36443;SDS011;24692;45.642;13.806;2023-12-20T11:21:56;8.03;;;4.80;;
36443;SDS011;24692;45.642;13.806;2023-12-20T11:24:22;7.70;;;4.50;;
36443;SDS011;24692;45.642;13.806;2023-12-20T11:26:49;5.03;;;4.00;;
36443;SDS011;24692;45.642;13.806;2023-12-20T11:29:37;7.87;;;4.83;;
36443;SDS011;24692;45.642;13.806;2023-12-20T11:32:04;6.27;;;5.20;;
36443;SDS011;24692;45.642;13.806;2023-12-20T11:34:59;6.50;;;5.03;;
36443;SDS011;24692;45.642;13.806;2023-12-20T11:37:41;6.37;;;4.60;;
36443;SDS011;24692;45.642;13.806;2023-12-20T11:40:12;5.77;;;4.80;;
36443;SDS011;24692;45.642;13.806;2023-12-20T11:42:40;5.00;;;4.33;;
36443;SDS011;24692;45.642;13.806;2023-12-20T11:45:11;7.07;;;4.73;;
36443;SDS011;24692;45.642;13.806;2023-12-20T11:47:45;6.33;;;4.50;;
36443;SDS011;24692;45.642;13.806;2023-12-20T11:50:14;10.10;;;4.90;;
36443;SDS011;24692;45.642;13.806;2023-12-20T11:52:41;6.60;;;4.60;;
36443;SDS011;24692;45.642;13.806;2023-12-20T11:55:07;8.20;;;4.47;;
36443;SDS011;24692;45.642;13.806;2023-12-20T11:57:33;7.17;;;5.40;;
36443;SDS011;24692;45.642;13.806;2023-12-20T11:59:59;10.00;;;5.20;;
36443;SDS011;24692;45.642;13.806;2023-12-20T12:02:25;7.63;;;5.30;;
36443;SDS011;24692;45.642;13.806;2023-12-20T12:04:51;6.40;;;5.13;;
36443;SDS011;24692;45.642;13.806;2023-12-20T12:07:17;7.33;;;4.70;;
36443;SDS011;24692;45.642;13.806;2023-12-20T12:09:43;7.03;;;5.13;;
36443;SDS011;24692;45.642;13.806;2023-12-20T12:12:09;11.00;;;5.20;;
36443;SDS011;24692;45.642;13.806;2023-12-20T12:14:36;7.10;;;5.03;;
36443;SDS011;24692;45.642;13.806;2023-12-20T12:17:03;7.93;;;5.17;;
36443;SDS011;24692;45.642;13.806;2023-12-20T12:19:30;7.50;;;5.50;;
36443;SDS011;24692;45.642;13.806;2023-12-20T12:22:18;7.47;;;5.07;;
36443;SDS011;24692;45.642;13.806;2023-12-20T12:24:45;6.30;;;5.20;;
36443;SDS011;24692;45.642;13.806;2023-12-20T12:27:15;8.60;;;5.00;;
36443;SDS011;24692;45.642;13.806;2023-12-20T12:29:41;7.50;;;4.73;;
36443;SDS011;24692;45.642;13.806;2023-12-20T12:32:28;7.87;;;5.07;;
36443;SDS011;24692;45.642;13.806;2023-12-20T12:34:54;6.03;;;4.63;;
36443;SDS011;24692;45.642;13.806;2023-12-20T12:37:20;8.07;;;5.10;;
36443;SDS011;24692;45.642;13.806;2023-12-20T12:39:48;7.53;;;4.90;;
36443;SDS011;24692;45.642;13.806;2023-12-20T12:42:14;8.87;;;6.33;;
36443;SDS011;24692;45.642;13.806;2023-12-20T12:44:40;8.63;;;5.90;;
36443;SDS011;24692;45.642;13.806;2023-12-20T12:47:06;12.37;;;8.57;;
36443;SDS011;24692;45.642;13.806;2023-12-20T12:49:33;9.50;;;7.43;;
36443;SDS011;24692;45.642;13.806;2023-12-20T12:51:58;10.47;;;7.30;;
36443;SDS011;24692;45.642;13.806;2023-12-20T12:54:25;10.63;;;7.50;;
36443;SDS011;24692;45.642;13.806;2023-12-20T12:56:50;7.93;;;6.93;;
36443;SDS011;24692;45.642;13.806;2023-12-20T12:59:18;10.10;;;6.67;;
36443;SDS011;24692;45.642;13.806;2023-12-20T13:01:44;7.77;;;6.27;;
36443;SDS011;24692;45.642;13.806;2023-12-20T13:04:10;10.90;;;6.03;;
36443;SDS011;24692;45.642;13.806;2023-12-20T13:06:36;8.57;;;6.50;;
36443;SDS011;24692;45.642;13.806;2023-12-20T13:09:04;11.33;;;7.40;;
36443;SDS011;24692;45.642;13.806;2023-12-20T13:11:31;11.33;;;6.93;;
36443;SDS011;24692;45.642;13.806;2023-12-20T13:13:57;14.07;;;8.63;;
36443;SDS011;24692;45.642;13.806;2023-12-20T13:16:26;11.40;;;8.27;;
36443;SDS011;24692;45.642;13.806;2023-12-20T13:18:52;16.43;;;8.50;;
36443;SDS011;24692;45.642;13.806;2023-12-20T13:21:19;14.60;;;8.67;;
36443;SDS011;24692;45.642;13.806;2023-12-20T13:23:47;11.50;;;7.40;;
36443;SDS011;24692;45.642;13.806;2023-12-20T13:26:17;10.53;;;7.50;;
36443;SDS011;24692;45.642;13.806;2023-12-20T13:28:43;9.93;;;7.60;;
36443;SDS011;24692;45.642;13.806;2023-12-20T13:31:08;11.87;;;7.33;;
36443;SDS011;24692;45.642;13.806;2023-12-20T13:33:35;12.03;;;7.50;;
36443;SDS011;24692;45.642;13.806;2023-12-20T13:36:02;11.20;;;7.40;;
36443;SDS011;24692;45.642;13.806;2023-12-20T13:38:27;11.20;;;7.77;;
36443;SDS011;24692;45.642;13.806;2023-12-20T13:40:53;10.67;;;7.70;;
36443;SDS011;24692;45.642;13.806;2023-12-20T13:43:20;10.07;;;7.80;;
36443;SDS011;24692;45.642;13.806;2023-12-20T13:45:47;11.97;;;8.13;;
36443;SDS011;24692;45.642;13.806;2023-12-20T13:48:13;8.40;;;6.90;;
36443;SDS011;24692;45.642;13.806;2023-12-20T13:50:39;8.93;;;6.50;;
36443;SDS011;24692;45.642;13.806;2023-12-20T13:53:08;8.57;;;6.70;;
36443;SDS011;24692;45.642;13.806;2023-12-20T13:55:36;10.63;;;6.60;;
36443;SDS011;24692;45.642;13.806;2023-12-20T13:58:02;9.17;;;6.67;;
36443;SDS011;24692;45.642;13.806;2023-12-20T14:00:28;7.90;;;5.90;;
36443;SDS011;24692;45.642;13.806;2023-12-20T14:02:55;10.77;;;6.23;;
36443;SDS011;24692;45.642;13.806;2023-12-20T14:05:23;9.87;;;6.83;;
36443;SDS011;24692;45.642;13.806;2023-12-20T14:07:50;8.87;;;6.60;;
36443;SDS011;24692;45.642;13.806;2023-12-20T14:10:16;8.90;;;6.30;;
36443;SDS011;24692;45.642;13.806;2023-12-20T14:12:42;9.30;;;6.60;;
36443;SDS011;24692;45.642;13.806;2023-12-20T14:15:09;9.17;;;6.07;;
36443;SDS011;24692;45.642;13.806;2023-12-20T14:17:38;9.20;;;6.57;;
36443;SDS011;24692;45.642;13.806;2023-12-20T14:20:08;8.10;;;6.43;;
36443;SDS011;24692;45.642;13.806;2023-12-20T14:22:34;10.63;;;6.83;;
36443;SDS011;24692;45.642;13.806;2023-12-20T14:25:00;11.43;;;6.80;;
36443;SDS011;24692;45.642;13.806;2023-12-20T14:27:27;12.53;;;8.60;;
36443;SDS011;24692;45.642;13.806;2023-12-20T14:29:53;10.13;;;8.00;;
36443;SDS011;24692;45.642;13.806;2023-12-20T14:32:19;10.60;;;7.53;;
36443;SDS011;24692;45.642;13.806;2023-12-20T14:34:45;11.77;;;7.70;;